Time;durP1;ratioP1;P1;durP2;ratioP2;P2;SDS_P1;SDS_P2;PMS_P1;PMS_P2;Temp;Humidity;BMP_temperature;BMP_pressure;BME280_temperature;BME280_humidity;BME280_pressure;Samples;Min_cycle;Max_cycle;Signal;HPM_P1;HPM_P2
2022/09/27 00:00:05;;;;;;;0.70;0.70;;;;;;;;;;5081209;28;20046;-85
2022/09/27 00:02:31;;;;;;;1.33;1.20;;;;;;;;;;5080986;28;20110;-86
2022/09/27 00:04:57;;;;;;;1.05;1.00;;;;;;;;;;5085774;28;20073;-86
2022/09/27 00:07:23;;;;;;;3.03;0.60;;;;;;;;;;5080659;28;20025;-87
2022/09/27 00:09:48;;;;;;;5.00;0.70;;;;;;;;;;5081730;28;20572;-85
2022/09/27 00:12:13;;;;;;;2.83;0.85;;;;;;;;;;5086967;28;20028;-88
2022/09/27 00:14:39;;;;;;;1.65;0.88;;;;;;;;;;5084473;28;20385;-88
2022/09/27 00:17:04;;;;;;;2.95;0.90;;;;;;;;;;5091917;28;20386;-86
2022/09/27 00:19:30;;;;;;;1.38;1.00;;;;;;;;;;5084154;28;20016;-87
2022/09/27 00:21:55;;;;;;;0.75;0.75;;;;;;;;;;5083499;28;20028;-86
2022/09/27 00:24:22;;;;;;;0.75;0.75;;;;;;;;;;5095585;28;20385;-88
2022/09/27 00:26:59;;;;;;;0.80;0.80;;;;;;;;;;5095815;28;20069;-86
2022/09/27 00:29:25;;;;;;;1.30;0.90;;;;;;;;;;5098420;28;20020;-83
2022/09/27 00:31:50;;;;;;;2.55;0.70;;;;;;;;;;5096826;28;21550;-88
2022/09/27 00:34:22;;;;;;;0.60;0.60;;;;;;;;;;5096273;28;20032;-88
2022/09/27 00:36:48;;;;;;;1.10;0.90;;;;;;;;;;5102347;28;20036;-87
2022/09/27 00:39:14;;;;;;;1.08;0.90;;;;;;;;;;5090317;28;20033;-88
2022/09/27 00:41:41;;;;;;;1.10;0.65;;;;;;;;;;5102290;28;20045;-84
2022/09/27 00:44:39;;;;;;;2.50;0.68;;;;;;;;;;5104687;28;20031;-83
2022/09/27 00:47:23;;;;;;;3.97;0.80;;;;;;;;;;5045103;28;20066;-83
2022/09/27 00:49:59;;;;;;;0.60;0.60;;;;;;;;;;5103534;28;20028;-87
2022/09/27 00:52:35;;;;;;;0.40;0.40;;;;;;;;;;5097715;28;20020;-86
2022/09/27 00:55:07;;;;;;;1.20;0.80;;;;;;;;;;5085684;28;20031;-86
2022/09/27 00:57:33;;;;;;;1.63;0.38;;;;;;;;;;5105579;28;20031;-87
2022/09/27 01:00:04;;;;;;;0.50;0.50;;;;;;;;;;5091574;28;20702;-86
2022/09/27 01:02:30;;;;;;;0.70;0.70;;;;;;;;;;5090016;28;20057;-86
2022/09/27 01:04:56;;;;;;;0.70;0.70;;;;;;;;;;5088818;28;20027;-86
2022/09/27 01:07:21;;;;;;;0.75;0.75;;;;;;;;;;5099187;28;20096;-86
2022/09/27 01:09:47;;;;;;;0.63;0.60;;;;;;;;;;5096117;28;20032;-86
2022/09/27 01:12:24;;;;;;;0.80;0.80;;;;;;;;;;5111357;28;20040;-87
2022/09/27 01:15:04;;;;;;;0.90;0.85;;;;;;;;;;5088702;28;20033;-87
2022/09/27 01:17:49;;;;;;;0.40;0.40;;;;;;;;;;5087325;28;20040;-87
2022/09/27 01:20:57;;;;;;;0.70;0.70;;;;;;;;;;5076343;28;20036;-82
2022/09/27 01:23:38;;;;;;;0.57;0.57;;;;;;;;;;5080082;28;20047;-82
2022/09/27 01:26:22;;;;;;;0.90;0.68;;;;;;;;;;5083017;28;20028;-88
2022/09/27 01:28:57;;;;;;;1.98;0.52;;;;;;;;;;5083438;28;20025;-88
2022/09/27 01:31:29;;;;;;;1.45;0.52;;;;;;;;;;5083416;28;20032;-85
2022/09/27 01:34:09;;;;;;;0.57;0.50;;;;;;;;;;5090142;28;20040;-88
2022/09/27 01:36:56;;;;;;;0.50;0.50;;;;;;;;;;5091790;28;20040;-84
2022/09/27 01:39:38;;;;;;;0.90;0.70;;;;;;;;;;5082021;28;20025;-87
2022/09/27 01:42:15;;;;;;;0.60;0.60;;;;;;;;;;5084852;28;20020;-86
2022/09/27 01:44:49;;;;;;;1.65;0.75;;;;;;;;;;5084320;28;20474;-87
2022/09/27 01:47:21;;;;;;;0.45;0.40;;;;;;;;;;5078765;28;20029;-88
2022/09/27 01:50:04;;;;;;;0.43;0.43;;;;;;;;;;5082813;28;20020;-87
2022/09/27 01:52:36;;;;;;;0.73;0.73;;;;;;;;;;5086241;28;20089;-84
2022/09/27 01:55:05;;;;;;;0.75;0.75;;;;;;;;;;5106589;28;20625;-88
2022/09/27 01:57:45;;;;;;;0.60;0.55;;;;;;;;;;5086230;28;20042;-87
2022/09/27 02:00:12;;;;;;;4.65;0.50;;;;;;;;;;5088377;28;20031;-87
2022/09/27 02:02:46;;;;;;;2.20;1.83;;;;;;;;;;5088710;28;20051;-84
2022/09/27 02:05:16;;;;;;;0.80;0.70;;;;;;;;;;5091746;28;20032;-86
2022/09/27 02:07:56;;;;;;;0.80;0.80;;;;;;;;;;5104773;28;20020;-87
2022/09/27 02:10:25;;;;;;;1.75;0.75;;;;;;;;;;5088385;28;20069;-87
2022/09/27 02:12:56;;;;;;;0.63;0.63;;;;;;;;;;5089846;28;20024;-86
2022/09/27 02:15:25;;;;;;;0.53;0.53;;;;;;;;;;5092775;28;20119;-87
2022/09/27 02:18:00;;;;;;;0.65;0.65;;;;;;;;;;5093354;28;20061;-86
2022/09/27 02:20:37;;;;;;;1.85;0.70;;;;;;;;;;5088394;28;20094;-87
2022/09/27 02:23:08;;;;;;;1.00;0.52;;;;;;;;;;5081056;28;20708;-87
2022/09/27 02:25:49;;;;;;;0.90;0.80;;;;;;;;;;5078198;28;20505;-88
2022/09/27 02:28:26;;;;;;;3.50;0.50;;;;;;;;;;5079125;28;20036;-87
2022/09/27 02:30:53;;;;;;;0.60;0.60;;;;;;;;;;5084909;28;20031;-88
2022/09/27 02:33:21;;;;;;;1.88;0.50;;;;;;;;;;5084484;28;20056;-86
2022/09/27 02:35:47;;;;;;;0.63;0.57;;;;;;;;;;5079487;28;20016;-87
2022/09/27 02:38:12;;;;;;;0.45;0.45;;;;;;;;;;5093352;28;20057;-87
2022/09/27 02:40:43;;;;;;;0.88;0.50;;;;;;;;;;5079569;28;20027;-87
2022/09/27 02:43:09;;;;;;;0.63;0.50;;;;;;;;;;5079483;28;20028;-87
2022/09/27 02:46:02;;;;;;;9.35;0.75;;;;;;;;;;5078983;28;20039;-86
2022/09/27 02:48:49;;;;;;;0.38;0.38;;;;;;;;;;5076773;28;20032;-86
2022/09/27 02:51:40;;;;;;;0.93;0.52;;;;;;;;;;5081545;28;20082;-87
2022/09/27 02:54:28;;;;;;;1.50;0.83;;;;;;;;;;5086966;28;20040;-86
2022/09/27 02:56:56;;;;;;;7.03;0.73;;;;;;;;;;5086690;28;20024;-86
2022/09/27 03:00:14;;;;;;;1.77;0.68;;;;;;;;;;5086906;28;20108;-86
2022/09/27 03:03:03;;;;;;;1.27;0.50;;;;;;;;;;5073232;28;20024;-86
2022/09/27 03:05:35;;;;;;;0.40;0.40;;;;;;;;;;5095402;28;20016;-85
2022/09/27 03:08:03;;;;;;;3.72;0.90;;;;;;;;;;5091696;28;20103;-86
2022/09/27 03:10:29;;;;;;;1.52;1.00;;;;;;;;;;5089836;28;20027;-87
2022/09/27 03:12:57;;;;;;;0.38;0.38;;;;;;;;;;5093991;28;20142;-88
2022/09/27 03:15:23;;;;;;;1.98;0.70;;;;;;;;;;5096162;28;20050;-86
2022/09/27 03:17:48;;;;;;;1.10;0.75;;;;;;;;;;5090799;28;20020;-86
2022/09/27 03:20:14;;;;;;;3.83;0.90;;;;;;;;;;5087027;28;20507;-86
2022/09/27 03:22:39;;;;;;;1.02;0.80;;;;;;;;;;5084622;28;20036;-86
2022/09/27 03:25:06;;;;;;;0.65;0.50;;;;;;;;;;5085921;28;20028;-87
2022/09/27 03:27:32;;;;;;;3.53;0.85;;;;;;;;;;5086202;28;20107;-86
2022/09/27 03:29:58;;;;;;;3.53;1.23;;;;;;;;;;5086744;28;20077;-87
2022/09/27 03:32:24;;;;;;;2.33;1.17;;;;;;;;;;5086728;28;20021;-86
2022/09/27 03:34:49;;;;;;;2.58;1.00;;;;;;;;;;5085516;28;20032;-86
2022/09/27 03:37:15;;;;;;;1.63;1.15;;;;;;;;;;5080811;28;20492;-86
2022/09/27 03:39:40;;;;;;;0.60;0.60;;;;;;;;;;5087800;28;20020;-89
2022/09/27 03:42:05;;;;;;;3.60;1.80;;;;;;;;;;5085124;28;20035;-87
2022/09/27 03:44:31;;;;;;;5.07;1.42;;;;;;;;;;5087400;28;20096;-85
2022/09/27 03:46:57;;;;;;;5.75;0.95;;;;;;;;;;5087476;28;20028;-87
2022/09/27 03:49:23;;;;;;;4.05;1.00;;;;;;;;;;5084647;28;20016;-87
2022/09/27 03:51:48;;;;;;;3.80;1.20;;;;;;;;;;5089851;28;20038;-87
2022/09/27 03:54:14;;;;;;;8.55;1.30;;;;;;;;;;5091802;28;20385;-86
2022/09/27 03:56:39;;;;;;;1.92;1.05;;;;;;;;;;5092642;28;20024;-86
2022/09/27 03:59:05;;;;;;;4.70;1.30;;;;;;;;;;5089277;28;20051;-86
2022/09/27 04:01:30;;;;;;;3.25;1.48;;;;;;;;;;5091800;28;20043;-86
2022/09/27 04:03:55;;;;;;;3.95;1.40;;;;;;;;;;5091349;28;20494;-85
2022/09/27 04:06:22;;;;;;;2.08;1.23;;;;;;;;;;5088675;28;20031;-86
2022/09/27 04:08:47;;;;;;;5.22;1.50;;;;;;;;;;5092468;28;20024;-88
2022/09/27 04:11:14;;;;;;;2.95;1.15;;;;;;;;;;5091724;28;20385;-82
2022/09/27 04:13:39;;;;;;;7.03;1.20;;;;;;;;;;5092632;28;20034;-88
2022/09/27 04:16:05;;;;;;;4.63;1.40;;;;;;;;;;5090312;28;20040;-85
2022/09/27 04:18:30;;;;;;;3.45;1.30;;;;;;;;;;5090358;28;20024;-89
2022/09/27 04:20:56;;;;;;;5.03;1.70;;;;;;;;;;5090133;28;20028;-87
2022/09/27 04:23:22;;;;;;;2.10;1.35;;;;;;;;;;5083521;28;20020;-87
2022/09/27 04:25:48;;;;;;;8.20;1.63;;;;;;;;;;5083788;28;20039;-87
2022/09/27 04:28:14;;;;;;;2.28;1.30;;;;;;;;;;5087259;28;20416;-88
2022/09/27 04:30:40;;;;;;;2.22;1.25;;;;;;;;;;5082108;28;20943;-86
2022/09/27 04:33:05;;;;;;;10.35;1.70;;;;;;;;;;5085155;28;20035;-86
2022/09/27 04:38:14;;;;;;;3.83;1.20;;;;;;;;;;5086018;28;20169;-87
2022/09/27 04:40:40;;;;;;;3.80;1.35;;;;;;;;;;5085737;28;20036;-86
2022/09/27 04:43:06;;;;;;;1.08;1.00;;;;;;;;;;5084216;28;20450;-86
2022/09/27 04:45:32;;;;;;;6.55;1.58;;;;;;;;;;5084895;28;20012;-86
2022/09/27 04:47:58;;;;;;;3.13;1.42;;;;;;;;;;5085443;28;20142;-86
2022/09/27 04:50:23;;;;;;;5.47;1.65;;;;;;;;;;5085291;28;20720;-86
2022/09/27 04:52:51;;;;;;;2.88;1.20;;;;;;;;;;5083288;28;20158;-87
2022/09/27 04:55:17;;;;;;;3.65;1.30;;;;;;;;;;5084355;28;20492;-87
2022/09/27 04:57:42;;;;;;;5.90;1.13;;;;;;;;;;5084448;28;20048;-87
2022/09/27 05:00:09;;;;;;;2.83;1.25;;;;;;;;;;5090745;28;20020;-87
2022/09/27 05:02:34;;;;;;;7.18;1.40;;;;;;;;;;5105621;28;20055;-85
2022/09/27 05:04:59;;;;;;;3.30;1.13;;;;;;;;;;5090593;28;20557;-87
2022/09/27 05:07:25;;;;;;;3.65;1.20;;;;;;;;;;5089383;28;20105;-88
2022/09/27 05:09:51;;;;;;;4.43;1.52;;;;;;;;;;5097134;28;20028;-86
2022/09/27 05:12:18;;;;;;;1.90;0.80;;;;;;;;;;5095128;28;20482;-87
2022/09/27 05:14:43;;;;;;;3.97;1.27;;;;;;;;;;5082713;28;20394;-90
2022/09/27 05:17:09;;;;;;;2.15;1.10;;;;;;;;;;5081428;28;20477;-87
2022/09/27 05:19:35;;;;;;;4.60;1.33;;;;;;;;;;5076984;28;20033;-88
2022/09/27 05:22:00;;;;;;;3.63;0.88;;;;;;;;;;5092187;28;20020;-89
2022/09/27 05:24:30;;;;;;;1.45;1.00;;;;;;;;;;5085454;28;20028;-89
2022/09/27 05:26:56;;;;;;;3.42;1.35;;;;;;;;;;5091274;28;20062;-88
2022/09/27 05:29:21;;;;;;;4.55;1.23;;;;;;;;;;5086847;28;20367;-87
2022/09/27 05:31:47;;;;;;;1.75;1.00;;;;;;;;;;5084157;28;20024;-83
2022/09/27 05:34:12;;;;;;;0.80;0.68;;;;;;;;;;5086338;28;20037;-84
2022/09/27 05:36:37;;;;;;;0.70;0.70;;;;;;;;;;5090192;28;20058;-84
2022/09/27 05:39:03;;;;;;;3.60;0.95;;;;;;;;;;5087528;28;20029;-85
2022/09/27 05:41:30;;;;;;;2.28;1.08;;;;;;;;;;5087340;28;20024;-85
2022/09/27 05:43:55;;;;;;;9.77;1.05;;;;;;;;;;5084183;28;20043;-87
2022/09/27 05:46:21;;;;;;;0.65;0.65;;;;;;;;;;5078351;28;20490;-89
2022/09/27 05:48:46;;;;;;;0.80;0.75;;;;;;;;;;5085393;28;20112;-89
2022/09/27 05:51:13;;;;;;;1.13;1.02;;;;;;;;;;5084475;28;20024;-88
2022/09/27 05:53:38;;;;;;;1.17;0.70;;;;;;;;;;5090542;28;20032;-85
2022/09/27 05:56:04;;;;;;;0.93;0.88;;;;;;;;;;5090062;28;20081;-87
2022/09/27 05:58:29;;;;;;;1.85;0.93;;;;;;;;;;5097419;28;20051;-86
2022/09/27 06:00:55;;;;;;;2.38;1.08;;;;;;;;;;5096249;28;20111;-86
2022/09/27 06:03:20;;;;;;;0.95;0.90;;;;;;;;;;5095687;28;20393;-85
2022/09/27 06:05:46;;;;;;;3.50;1.15;;;;;;;;;;5081069;28;20056;-86
2022/09/27 06:08:12;;;;;;;3.05;1.25;;;;;;;;;;5078811;28;20488;-87
2022/09/27 06:10:40;;;;;;;3.67;0.80;;;;;;;;;;5077146;28;20028;-88
2022/09/27 06:13:09;;;;;;;6.15;1.48;;;;;;;;;;5078034;28;20024;-87
2022/09/27 06:15:38;;;;;;;1.73;1.15;;;;;;;;;;5079500;28;20047;-87
2022/09/27 06:18:09;;;;;;;4.82;1.10;;;;;;;;;;5077518;28;20043;-87
2022/09/27 06:20:36;;;;;;;1.98;0.95;;;;;;;;;;5094031;28;20099;-87
2022/09/27 06:23:14;;;;;;;2.42;1.10;;;;;;;;;;5087703;28;20490;-86
2022/09/27 06:25:40;;;;;;;2.47;1.08;;;;;;;;;;5095802;28;20028;-86
2022/09/27 06:28:06;;;;;;;1.00;1.00;;;;;;;;;;5099178;28;20058;-87
2022/09/27 06:30:32;;;;;;;2.38;1.17;;;;;;;;;;5088243;28;20028;-85
2022/09/27 06:32:59;;;;;;;3.35;0.77;;;;;;;;;;5097856;28;20021;-86
2022/09/27 06:35:26;;;;;;;0.70;0.70;;;;;;;;;;5094064;28;20024;-84
2022/09/27 06:37:51;;;;;;;2.80;0.70;;;;;;;;;;5099680;28;20020;-85
2022/09/27 06:40:18;;;;;;;2.08;0.70;;;;;;;;;;5078371;28;20040;-86
2022/09/27 06:42:43;;;;;;;1.13;0.60;;;;;;;;;;5081982;28;20036;-86
2022/09/27 06:45:09;;;;;;;1.20;0.70;;;;;;;;;;5097646;28;20099;-86
2022/09/27 06:47:38;;;;;;;0.43;0.43;;;;;;;;;;5099438;28;20052;-86
2022/09/27 06:50:05;;;;;;;0.50;0.50;;;;;;;;;;5095302;28;20047;-82
2022/09/27 06:52:35;;;;;;;1.45;0.57;;;;;;;;;;5088617;28;20028;-82
2022/09/27 06:55:02;;;;;;;1.00;0.35;;;;;;;;;;5093071;28;20013;-80
2022/09/27 07:00:25;;;;;;;0.38;0.38;;;;;;;;;;5086644;28;20028;-80
2022/09/27 07:02:51;;;;;;;0.75;0.52;;;;;;;;;;5095362;28;20055;-82
2022/09/27 07:05:17;;;;;;;1.95;0.60;;;;;;;;;;5088528;28;20021;-81
2022/09/27 07:07:43;;;;;;;1.58;0.82;;;;;;;;;;5097857;28;20080;-86
2022/09/27 07:10:09;;;;;;;0.30;0.30;;;;;;;;;;5088797;28;20103;-85
2022/09/27 07:12:38;;;;;;;1.50;0.43;;;;;;;;;;5081202;28;20036;-84
2022/09/27 07:15:05;;;;;;;0.47;0.40;;;;;;;;;;5099909;28;20016;-84
2022/09/27 07:17:31;;;;;;;0.43;0.43;;;;;;;;;;5129923;28;20027;-83
2022/09/27 07:19:56;;;;;;;0.45;0.40;;;;;;;;;;5106234;28;20024;-83
2022/09/27 07:22:22;;;;;;;0.40;0.40;;;;;;;;;;5103391;28;20077;-84
2022/09/27 07:24:47;;;;;;;0.50;0.40;;;;;;;;;;5111045;28;20031;-84
2022/09/27 07:27:14;;;;;;;1.13;0.40;;;;;;;;;;5110376;28;20032;-87
2022/09/27 07:29:39;;;;;;;0.45;0.45;;;;;;;;;;5107646;28;20020;-87
2022/09/27 07:32:06;;;;;;;2.10;0.45;;;;;;;;;;5088045;28;20082;-88
2022/09/27 07:34:34;;;;;;;0.32;0.32;;;;;;;;;;5098044;28;20024;-88
2022/09/27 07:37:02;;;;;;;0.30;0.30;;;;;;;;;;5087027;28;20024;-87
2022/09/27 07:39:27;;;;;;;1.90;0.50;;;;;;;;;;5079162;28;20115;-88
2022/09/27 07:41:52;;;;;;;0.60;0.60;;;;;;;;;;5078844;28;20056;-88
2022/09/27 07:44:18;;;;;;;1.23;0.30;;;;;;;;;;5078507;28;20028;-87
2022/09/27 07:46:43;;;;;;;0.70;0.50;;;;;;;;;;5079203;28;20099;-87
2022/09/27 07:49:09;;;;;;;0.63;0.63;;;;;;;;;;5078020;28;20028;-88
2022/09/27 07:51:34;;;;;;;0.82;0.70;;;;;;;;;;5078788;28;20024;-88
2022/09/27 07:54:02;;;;;;;0.82;0.82;;;;;;;;;;5097966;28;20162;-88
2022/09/27 07:56:28;;;;;;;0.60;0.60;;;;;;;;;;5096765;28;20027;-87
2022/09/27 07:58:54;;;;;;;1.25;0.90;;;;;;;;;;5096652;28;20031;-87
2022/09/27 08:01:19;;;;;;;1.20;1.00;;;;;;;;;;5094922;28;20024;-88
2022/09/27 08:03:44;;;;;;;3.53;1.25;;;;;;;;;;5093785;28;20106;-88
2022/09/27 08:06:10;;;;;;;0.70;0.70;;;;;;;;;;5095284;28;20103;-88
2022/09/27 08:08:35;;;;;;;0.90;0.63;;;;;;;;;;5096059;28;20054;-88
2022/09/27 08:11:11;;;;;;;6.72;0.77;;;;;;;;;;5091175;28;20024;-87
2022/09/27 08:13:55;;;;;;;0.52;0.52;;;;;;;;;;5087501;28;20457;-87
2022/09/27 08:16:34;;;;;;;2.95;0.82;;;;;;;;;;5083337;28;20030;-88
2022/09/27 08:23:08;;;;;;;0.55;0.55;;;;;;;;;;5035117;28;20402;-86
2022/09/27 08:25:35;;;;;;;0.60;0.60;;;;;;;;;;5054839;28;20482;-87
2022/09/27 08:28:03;;;;;;;1.85;1.05;;;;;;;;;;5108805;28;20031;-85
2022/09/27 08:30:31;;;;;;;0.70;0.70;;;;;;;;;;5092811;28;20058;-85
2022/09/27 08:32:58;;;;;;;0.77;0.60;;;;;;;;;;5099463;28;20069;-83
2022/09/27 08:35:24;;;;;;;1.08;0.60;;;;;;;;;;5105123;28;20081;-88
2022/09/27 08:38:01;;;;;;;2.58;0.80;;;;;;;;;;5096813;28;20032;-85
2022/09/27 08:40:58;;;;;;;1.48;1.00;;;;;;;;;;5075914;28;20032;-87
2022/09/27 08:43:40;;;;;;;0.55;0.30;;;;;;;;;;5076386;28;20497;-85
2022/09/27 08:46:27;;;;;;;0.82;0.80;;;;;;;;;;5075615;28;20154;-86
2022/09/27 08:49:05;;;;;;;0.65;0.65;;;;;;;;;;5081954;28;20016;-89
2022/09/27 08:51:32;;;;;;;0.32;0.32;;;;;;;;;;5080514;28;20027;-88
2022/09/27 08:54:17;;;;;;;2.28;0.77;;;;;;;;;;5081827;28;20023;-88
2022/09/27 08:56:44;;;;;;;1.27;0.60;;;;;;;;;;5087873;28;20040;-87
2022/09/27 08:59:13;;;;;;;3.13;0.80;;;;;;;;;;5083285;28;20062;-87
2022/09/27 09:01:40;;;;;;;1.38;0.80;;;;;;;;;;5084852;28;20028;-86
2022/09/27 09:04:08;;;;;;;2.08;0.82;;;;;;;;;;5088955;28;20017;-88
2022/09/27 09:06:36;;;;;;;2.22;1.10;;;;;;;;;;5076043;28;20033;-88
2022/09/27 09:09:32;;;;;;;4.55;0.80;;;;;;;;;;5074820;28;20091;-87
2022/09/27 09:12:46;;;;;;;1.83;0.70;;;;;;;;;;5075881;28;20028;-88
2022/09/27 09:15:24;;;;;;;1.05;0.90;;;;;;;;;;5075252;28;20025;-88
2022/09/27 09:18:03;;;;;;;1.08;0.98;;;;;;;;;;5074572;28;20482;-88
2022/09/27 09:20:45;;;;;;;3.20;0.90;;;;;;;;;;5080821;28;20104;-87
2022/09/27 09:23:39;;;;;;;2.95;1.35;;;;;;;;;;5087636;28;20024;-88
2022/09/27 09:26:16;;;;;;;2.63;1.08;;;;;;;;;;5100613;28;20032;-88
2022/09/27 09:29:03;;;;;;;1.05;0.95;;;;;;;;;;5100483;28;20024;-87
2022/09/27 09:31:50;;;;;;;0.77;0.77;;;;;;;;;;5109292;22;20463;-80
2022/09/27 09:34:40;;;;;;;1.10;0.75;;;;;;;;;;5077305;28;20024;-80
2022/09/27 09:37:33;;;;;;;3.53;0.60;;;;;;;;;;5051157;28;20028;-80
2022/09/27 09:40:15;;;;;;;2.30;0.90;;;;;;;;;;5049945;28;20052;-83
2022/09/27 09:42:59;;;;;;;1.55;0.80;;;;;;;;;;5039343;28;20040;-80
2022/09/27 09:45:31;;;;;;;1.73;1.13;;;;;;;;;;5046671;28;20017;-80
2022/09/27 09:48:19;;;;;;;1.00;0.90;;;;;;;;;;5050204;28;20033;-80
2022/09/27 09:50:50;;;;;;;1.85;1.02;;;;;;;;;;5046223;28;20028;-80
2022/09/27 09:53:19;;;;;;;1.25;0.75;;;;;;;;;;5051982;28;20025;-80
2022/09/27 09:56:07;;;;;;;2.58;1.10;;;;;;;;;;5052180;28;20104;-80
2022/09/27 09:58:57;;;;;;;3.33;0.90;;;;;;;;;;5052444;28;20035;-81
2022/09/27 10:01:34;;;;;;;4.32;1.25;;;;;;;;;;5050782;28;20047;-81
2022/09/27 10:04:00;;;;;;;2.67;1.10;;;;;;;;;;5051877;28;20029;-80
2022/09/27 10:06:29;;;;;;;4.22;0.98;;;;;;;;;;5052156;28;20029;-80
2022/09/27 10:08:55;;;;;;;3.20;1.08;;;;;;;;;;5045600;28;20067;-80
2022/09/27 10:11:27;;;;;;;0.80;0.80;;;;;;;;;;5042499;28;20028;-80
2022/09/27 10:13:55;;;;;;;0.82;0.82;;;;;;;;;;5045578;28;20048;-81
2022/09/27 10:16:21;;;;;;;1.55;1.00;;;;;;;;;;5043670;28;21275;-81
2022/09/27 10:18:50;;;;;;;3.45;1.00;;;;;;;;;;5044158;28;20075;-81
2022/09/27 10:21:20;;;;;;;2.30;0.90;;;;;;;;;;5045923;28;20040;-80
2022/09/27 10:24:05;;;;;;;3.17;0.93;;;;;;;;;;5045544;28;20044;-81
2022/09/27 10:26:31;;;;;;;1.77;0.90;;;;;;;;;;5044672;28;20548;-81
2022/09/27 10:28:57;;;;;;;1.95;0.80;;;;;;;;;;5046044;28;21524;-80
2022/09/27 10:31:23;;;;;;;2.58;1.15;;;;;;;;;;5051765;28;20044;-80
2022/09/27 10:33:58;;;;;;;1.85;0.70;;;;;;;;;;5047257;28;20041;-81
2022/09/27 10:36:32;;;;;;;2.30;0.70;;;;;;;;;;5049317;28;20025;-80
2022/09/27 10:39:04;;;;;;;1.17;0.77;;;;;;;;;;5059810;28;20028;-80
2022/09/27 10:41:38;;;;;;;1.10;1.00;;;;;;;;;;5057534;28;20033;-80
2022/09/27 10:44:18;;;;;;;7.20;1.10;;;;;;;;;;5059547;28;20024;-80
2022/09/27 10:46:47;;;;;;;2.55;0.80;;;;;;;;;;5043374;28;20029;-80
2022/09/27 10:49:21;;;;;;;1.98;0.90;;;;;;;;;;5061289;28;20025;-80
2022/09/27 10:51:52;;;;;;;0.80;0.80;;;;;;;;;;5041829;28;20031;-80
2022/09/27 10:54:28;;;;;;;0.93;0.60;;;;;;;;;;5042682;28;20509;-80
2022/09/27 10:57:05;;;;;;;2.05;0.63;;;;;;;;;;5047581;28;20055;-79
2022/09/27 10:59:38;;;;;;;3.35;1.13;;;;;;;;;;5044639;28;20060;-80
2022/09/27 11:02:05;;;;;;;1.95;0.98;;;;;;;;;;5056198;28;20012;-80
2022/09/27 11:04:36;;;;;;;1.70;0.77;;;;;;;;;;5039864;28;20353;-80
2022/09/27 11:07:17;;;;;;;7.45;1.38;;;;;;;;;;5041079;28;20560;-80
2022/09/27 11:09:53;;;;;;;3.47;1.10;;;;;;;;;;5036735;28;20029;-81
2022/09/27 11:12:21;;;;;;;2.00;0.90;;;;;;;;;;5030573;28;20025;-80
2022/09/27 11:15:13;;;;;;;0.93;0.73;;;;;;;;;;5046948;28;20023;-80
2022/09/27 11:17:49;;;;;;;0.80;0.80;;;;;;;;;;5050117;28;20039;-80
2022/09/27 11:20:38;;;;;;;2.10;0.88;;;;;;;;;;5046790;28;20031;-79
2022/09/27 11:23:18;;;;;;;2.55;0.90;;;;;;;;;;5044695;28;20036;-80
2022/09/27 11:26:13;;;;;;;1.73;0.63;;;;;;;;;;5045192;28;20017;-80
2022/09/27 11:28:52;;;;;;;1.20;1.00;;;;;;;;;;5041951;28;20052;-80
2022/09/27 11:31:52;;;;;;;2.00;1.00;;;;;;;;;;5022934;28;20039;-80
2022/09/27 11:34:31;;;;;;;1.35;0.77;;;;;;;;;;5047164;28;20108;-79
2022/09/27 11:37:31;;;;;;;2.35;1.05;;;;;;;;;;5037435;28;20029;-77
2022/09/27 11:40:12;;;;;;;2.65;0.70;;;;;;;;;;5036664;28;20033;-85
2022/09/27 11:42:46;;;;;;;1.13;1.02;;;;;;;;;;5044416;28;20025;-80
2022/09/27 11:45:23;;;;;;;1.65;0.73;;;;;;;;;;5038962;28;20029;-80
2022/09/27 11:48:29;;;;;;;0.55;0.55;;;;;;;;;;5039113;28;20025;-81
2022/09/27 11:51:12;;;;;;;1.30;1.20;;;;;;;;;;5040278;28;20116;-81
2022/09/27 11:53:49;;;;;;;1.52;0.57;;;;;;;;;;5041420;28;20526;-81
2022/09/27 11:56:37;;;;;;;0.57;0.57;;;;;;;;;;5020628;28;20128;-82
2022/09/27 11:59:36;;;;;;;0.45;0.25;;;;;;;;;;5023488;28;20156;-82
2022/09/27 12:02:43;;;;;;;0.32;0.32;;;;;;;;;;5026279;28;20426;-83
2022/09/27 12:05:51;;;;;;;0.47;0.47;;;;;;;;;;5024370;28;20029;-83
2022/09/27 12:08:28;;;;;;;0.98;0.68;;;;;;;;;;5024071;28;20088;-84
2022/09/27 12:11:04;;;;;;;0.55;0.55;;;;;;;;;;5040163;28;20411;-85
2022/09/27 12:13:42;;;;;;;0.40;0.40;;;;;;;;;;5041563;28;20022;-84
2022/09/27 12:16:11;;;;;;;0.60;0.60;;;;;;;;;;5038627;28;20033;-83
2022/09/27 12:18:38;;;;;;;1.55;0.50;;;;;;;;;;5021300;28;20022;-83
2022/09/27 12:21:07;;;;;;;0.88;0.60;;;;;;;;;;5041730;28;20033;-84
2022/09/27 12:23:44;;;;;;;0.28;0.28;;;;;;;;;;5038775;28;20021;-84
2022/09/27 12:26:17;;;;;;;0.40;0.40;;;;;;;;;;5039882;28;20021;-83
2022/09/27 12:28:50;;;;;;;0.32;0.32;;;;;;;;;;5022047;28;20476;-84
2022/09/27 12:31:30;;;;;;;0.32;0.32;;;;;;;;;;5038462;28;20057;-84
2022/09/27 12:34:17;;;;;;;0.50;0.47;;;;;;;;;;5029177;28;20051;-83
2022/09/27 12:36:48;;;;;;;0.30;0.30;;;;;;;;;;5054959;28;20017;-83
2022/09/27 12:39:41;;;;;;;2.30;0.37;;;;;;;;;;5030039;28;20124;-84
2022/09/27 12:42:22;;;;;;;1.02;0.73;;;;;;;;;;5037893;28;20263;-83
2022/09/27 12:44:49;;;;;;;1.45;0.60;;;;;;;;;;5038392;28;20052;-82
2022/09/27 12:47:37;;;;;;;0.60;0.60;;;;;;;;;;5019633;28;20025;-82
2022/09/27 12:50:25;;;;;;;1.10;0.65;;;;;;;;;;5056094;28;20025;-83
2022/09/27 12:52:55;;;;;;;0.50;0.50;;;;;;;;;;5028239;28;20021;-82
2022/09/27 12:55:45;;;;;;;1.30;0.50;;;;;;;;;;5018958;28;20026;-83
2022/09/27 12:58:39;;;;;;;0.47;0.47;;;;;;;;;;5019060;28;20052;-82
2022/09/27 13:01:22;;;;;;;1.08;0.60;;;;;;;;;;5032056;28;20032;-83
2022/09/27 13:04:09;;;;;;;0.50;0.47;;;;;;;;;;5055309;28;20074;-81
2022/09/27 13:07:05;;;;;;;0.77;0.50;;;;;;;;;;5033869;28;20021;-82
2022/09/27 13:10:18;;;;;;;1.50;0.50;;;;;;;;;;5057736;28;20025;-82
2022/09/27 13:12:49;;;;;;;0.50;0.50;;;;;;;;;;5031659;28;20041;-81
2022/09/27 13:15:26;;;;;;;0.60;0.60;;;;;;;;;;5076307;28;20005;-83
2022/09/27 13:17:55;;;;;;;0.70;0.70;;;;;;;;;;5072315;28;20021;-84
2022/09/27 13:20:26;;;;;;;0.50;0.50;;;;;;;;;;5059220;28;20028;-83
2022/09/27 13:22:52;;;;;;;0.52;0.50;;;;;;;;;;5056609;28;20032;-83
2022/09/27 13:25:46;;;;;;;1.67;0.77;;;;;;;;;;5052539;28;20029;-84
2022/09/27 13:28:30;;;;;;;0.75;0.50;;;;;;;;;;5037732;28;20499;-84
2022/09/27 13:30:59;;;;;;;0.63;0.60;;;;;;;;;;5039133;28;20021;-83
2022/09/27 13:33:33;;;;;;;1.08;0.50;;;;;;;;;;5028109;28;20033;-83
2022/09/27 13:36:21;;;;;;;0.50;0.50;;;;;;;;;;5045605;28;20029;-82
2022/09/27 13:39:10;;;;;;;0.73;0.73;;;;;;;;;;5019965;28;20036;-82
2022/09/27 13:41:47;;;;;;;1.65;0.65;;;;;;;;;;5037108;28;20021;-84
2022/09/27 13:45:18;;;;;;;0.47;0.43;;;;;;;;;;5036601;28;20022;-84
2022/09/27 13:51:58;;;;;;;4.13;0.63;;;;;;;;;;5037757;28;20044;-84
2022/09/27 13:54:33;;;;;;;0.60;0.60;;;;;;;;;;4993992;28;20279;-84
2022/09/27 13:57:00;;;;;;;0.77;0.77;;;;;;;;;;5055681;28;20055;-85
2022/09/27 13:59:34;;;;;;;0.70;0.70;;;;;;;;;;5038560;28;20036;-84
2022/09/27 14:02:19;;;;;;;0.50;0.50;;;;;;;;;;5057033;28;20025;-82
2022/09/27 14:04:49;;;;;;;0.47;0.47;;;;;;;;;;5050555;28;20360;-83
2022/09/27 14:07:18;;;;;;;2.72;0.90;;;;;;;;;;5056485;28;20021;-82
2022/09/27 14:09:48;;;;;;;0.50;0.50;;;;;;;;;;5058239;28;20024;-84
2022/09/27 14:12:27;;;;;;;1.08;0.50;;;;;;;;;;5029046;28;20029;-83
2022/09/27 14:14:55;;;;;;;0.55;0.40;;;;;;;;;;5040425;28;20412;-82
2022/09/27 14:17:21;;;;;;;1.45;0.50;;;;;;;;;;5052459;28;20025;-83
2022/09/27 14:19:48;;;;;;;1.83;0.60;;;;;;;;;;5060828;28;20541;-83
2022/09/27 14:22:15;;;;;;;0.43;0.43;;;;;;;;;;5060272;28;20043;-82
2022/09/27 14:24:40;;;;;;;0.65;0.65;;;;;;;;;;5061709;28;20032;-82
2022/09/27 14:27:13;;;;;;;0.93;0.80;;;;;;;;;;5042561;28;20033;-82
2022/09/27 14:29:45;;;;;;;0.85;0.85;;;;;;;;;;5044082;28;20148;-82
2022/09/27 14:32:13;;;;;;;0.68;0.68;;;;;;;;;;5036198;28;20051;-83
2022/09/27 14:34:39;;;;;;;0.95;0.70;;;;;;;;;;5062392;28;20091;-83
2022/09/27 14:37:23;;;;;;;3.60;1.00;;;;;;;;;;5045064;28;20033;-83
2022/09/27 14:40:07;;;;;;;0.60;0.60;;;;;;;;;;5044355;28;20411;-82
2022/09/27 14:42:35;;;;;;;0.70;0.70;;;;;;;;;;5044150;28;20029;-84
2022/09/27 14:45:10;;;;;;;1.20;1.10;;;;;;;;;;5037377;28;20044;-83
2022/09/27 14:47:47;;;;;;;1.23;0.73;;;;;;;;;;5060640;28;20021;-83
2022/09/27 14:50:32;;;;;;;0.70;0.70;;;;;;;;;;5050318;28;20108;-82
2022/09/27 14:53:00;;;;;;;4.90;0.88;;;;;;;;;;5041192;28;20028;-80
2022/09/27 14:55:28;;;;;;;0.95;0.68;;;;;;;;;;5038129;28;20021;-81
2022/09/27 14:57:58;;;;;;;3.15;0.60;;;;;;;;;;5060453;28;20533;-81
2022/09/27 15:00:35;;;;;;;0.55;0.55;;;;;;;;;;5060023;28;20051;-81
2022/09/27 15:03:03;;;;;;;3.13;0.80;;;;;;;;;;5059091;28;20021;-80
2022/09/27 15:05:33;;;;;;;0.95;0.90;;;;;;;;;;5031969;28;20024;-81
2022/09/27 15:08:05;;;;;;;1.15;0.98;;;;;;;;;;5039291;28;20021;-81
2022/09/27 15:10:38;;;;;;;2.17;1.10;;;;;;;;;;5058222;28;20047;-81
2022/09/27 15:13:04;;;;;;;0.90;0.73;;;;;;;;;;5058876;28;20090;-81
2022/09/27 15:15:38;;;;;;;0.70;0.70;;;;;;;;;;5041182;28;20033;-83
2022/09/27 15:18:39;;;;;;;1.00;0.60;;;;;;;;;;5057177;28;20012;-82
2022/09/27 15:21:19;;;;;;;2.75;0.90;;;;;;;;;;5026726;28;20463;-80
2022/09/27 15:23:44;;;;;;;1.08;1.00;;;;;;;;;;5055906;28;20041;-82
2022/09/27 15:26:13;;;;;;;1.95;0.52;;;;;;;;;;5061955;28;20025;-82
2022/09/27 15:28:43;;;;;;;4.03;0.80;;;;;;;;;;5054142;28;20036;-81
2022/09/27 15:31:08;;;;;;;1.52;0.60;;;;;;;;;;5065120;28;20391;-84